LIBDLIPE

Guest
Details From LIBD - Bari Palese Macchie
To LIPE - BOLOGNA
Flight Number -
Tags generated
Created
Modified
Stats Distance 318 nm / 589 km
Max Altitude 26,600 ft / 8,108 m
Waypoints 6
Social Downloads 1
Likes 0
Share VATSIM

Download

Looking for another format? Having issues loading an existing format? Contact us
Advertisement - Login to hide

Notes

Basic altitude profile: - Ascent Rate: 3000ft/min - Ascent Speed: 250kts - Cruise Altitude: 35000ft - Cruise Speed: 350kts - Descent Rate: 2500ft/min - Descent Speed: 200kts Options: - Use NATs: yes - Use PACOTS: yes - Use low airways: yes - Use high airways: yes

Route

LIBD AME M872 PES UM872 LEONN LIPE

ID Type Via Altitude Latitude Longitude Leg Dist Tot Dist Heading (true) Name
O LIBD APT - 0 ft / 0 m 41.13787˚ 16.75832˚ - 0 nm - Bari Palese Macchie
AME NDB - 16,700 ft / 5,090 m 41.50000˚ 15.83778˚ 46 nm 46 nm 298° / 297° AMENDOLA NDB
PES VOR M872 (AWY-LO) 18,500 ft / 5,639 m 42.43611˚ 14.18444˚ 92 nm 139 nm 308° / 307° PESCARA VOR-DME
NORKI FIX UM872 (AWY-HI) 26,600 ft / 8,108 m 43.07972˚ 13.32861˚ 54 nm 193 nm 316° / 315° -
LEONN FIX UM872 (AWY-HI) 22,700 ft / 6,919 m 43.29500˚ 13.03667˚ 18 nm 211 nm 315° / 315° -
O LIPE APT - 0 ft / 0 m 44.53545˚ 11.28866˚ 106 nm 318 nm 315° / 314° BOLOGNA

Altitude Profile

Advertisement - Login to hide

Weather


0- 5 10 15 20 25 30 35+ Temperature / ° C

Clouds and Precipitation
Forecast for 2017-12-16 12:00 UTC. Updated 10 minutes ago

Ground ~20,000 ft ~40,000 ft Winds

LIBD

Details ICAO LIBD (BRI)
Name Bari Palese Macchie
Region Italy
Timezone Europe/Rome (UTC+1.0)
Stats Elevation 177 ft / 54 m (AMSL)
Location 41.137865° 16.758318°
Runways 1
Magnetic Variation 3.738° E

METAR

LIBD 160920Z 19004KT 140V270 CAVOK 12/04 Q1007

Decode

TAF

TAF LIBD 160500Z 1606/1706 24013KT 9999 SCT030= TAF LIBP 160500Z 1606/1706 23012KT 9999 SCT030 BECMG 1608/1610 VRB05KT BECMG 1616/1618 28012KT TEMPO 1700/1706 4000 TSRA

Decode

Departure Runways

ID Width Length Bearing (true) Bearing (mag) Surface Threshold Offset Overrun Length
07 148 ft / 45 m 9,262 ft / 2,823 m 69.39° 65.65° Asphalt 1,257 ft / 383 m 0 ft / 0 m
25 148 ft / 45 m 9,262 ft / 2,823 m 249.42° 245.68° Asphalt 0 ft / 0 m 194 ft / 59 m

LIPE

Details ICAO LIPE (BLQ)
Name BOLOGNA
Region Italy
Timezone Europe/Rome (UTC+1.0)
Stats Elevation 123 ft / 37 m (AMSL)
Location 44.535446° 11.288662°
Runways 1
Magnetic Variation 2.918° E

METAR

LIPE 160920Z 31003KT 5000 BR BKN011 BKN020 04/02 Q1007

Decode

TAF

TAF LIPE 160500Z 1606/1706 VRB05KT 7000 SCT040 TEMPO 1606/1618 3000 SHRA BECMG 1612/1614 28010KT TEMPO 1700/1708 2000 BR

Decode

Destination Runways

ID Width Length Bearing (true) Bearing (mag) Surface Threshold Offset Overrun Length
12 148 ft / 45 m 9,185 ft / 2,800 m 116.78° 113.86° Asphalt 1,007 ft / 307 m 0 ft / 0 m
30 148 ft / 45 m 9,185 ft / 2,800 m 296.81° 293.89° Asphalt 1,188 ft / 362 m 200 ft / 61 m

Approach Navaids

Runway Type Ident Frequency Range Bearing (true) Bearing (mag) Slope Elevation
12 Localiser BLN 108.90 MHz 18 nm / 33 km 116.81° 113.89° - 123 ft / 37 m (AMSL)
12 Glidescope BLN 108.90 MHz 10 nm / 19 km 116.80° 113.88° 3.00° 120 ft / 37 m (AMSL)
12 DME BLN 108.90 MHz 18 nm / 33 km - - - 131 ft / 40 m (AMSL)
30 Localiser IBBP 109.75 MHz 18 nm / 33 km 296.66° 293.74° - 123 ft / 37 m (AMSL)
30 Glidescope IBBP 109.75 MHz 10 nm / 19 km 296.88° 293.96° 3.50° 123 ft / 37 m (AMSL)
30 DME IBBP 109.75 MHz 18 nm / 33 km - - - 123 ft / 37 m (AMSL)

Popular Alternatives